Time;durP1;ratioP1;P1;durP2;ratioP2;P2;SDS_P1;SDS_P2;PMS_P1;PMS_P2;Temp;Humidity;BMP_temperature;BMP_pressure;BME280_temperature;BME280_humidity;BME280_pressure;Samples;Min_cycle;Max_cycle;Signal;HPM_P1;HPM_P2
2022/10/19 00:00:20;;;;;;;15.10;9.73;;;;;;;15.96;100.00;100814.63;5017512;28;20145;-73
2022/10/19 00:02:46;;;;;;;14.27;9.27;;;;;;;15.95;100.00;100817.75;5016064;28;20030;-73
2022/10/19 00:05:11;;;;;;;14.18;10.35;;;;;;;15.94;100.00;100819.72;5008622;28;20038;-73
2022/10/19 00:07:37;;;;;;;18.40;10.02;;;;;;;15.94;100.00;100819.72;5025403;28;20045;-73
2022/10/19 00:10:03;;;;;;;16.30;8.95;;;;;;;15.90;100.00;100806.69;5023814;28;20021;-73
2022/10/19 00:12:28;;;;;;;16.95;9.93;;;;;;;15.91;100.00;100802.72;5010226;28;20042;-73
2022/10/19 00:14:54;;;;;;;13.43;9.10;;;;;;;15.90;100.00;100807.50;5000010;28;20034;-73
2022/10/19 00:17:19;;;;;;;15.35;9.23;;;;;;;15.91;100.00;100785.91;5024766;28;20033;-73
2022/10/19 00:19:45;;;;;;;19.05;9.50;;;;;;;15.90;100.00;100778.69;5026382;28;20033;-73
2022/10/19 00:22:10;;;;;;;15.77;8.82;;;;;;;15.87;100.00;100785.75;5041750;28;20517;-73
2022/10/19 00:24:36;;;;;;;16.52;8.95;;;;;;;15.87;100.00;100780.16;5026642;28;20034;-73
2022/10/19 00:27:01;;;;;;;12.80;8.55;;;;;;;15.84;100.00;100776.03;4990349;28;20042;-73
2022/10/19 00:29:27;;;;;;;15.27;9.40;;;;;;;15.83;100.00;100770.75;4999637;28;20030;-73
2022/10/19 00:31:52;;;;;;;16.67;9.63;;;;;;;15.82;100.00;100767.13;5029011;28;20375;-73
2022/10/19 00:34:18;;;;;;;17.88;9.50;;;;;;;15.82;100.00;100764.34;5015178;28;20527;-73
2022/10/19 00:36:43;;;;;;;15.85;8.98;;;;;;;15.80;100.00;100758.22;5042065;28;20033;-73
2022/10/19 00:39:13;;;;;;;15.15;9.10;;;;;;;15.79;100.00;100756.56;5006763;28;20037;-73
2022/10/19 00:41:39;;;;;;;17.75;9.40;;;;;;;15.78;100.00;100751.28;5006046;28;20418;-73
2022/10/19 00:44:11;;;;;;;17.27;9.32;;;;;;;15.79;100.00;100755.72;4999726;28;20163;-73
2022/10/19 00:46:38;;;;;;;25.15;9.13;;;;;;;15.78;100.00;100752.13;5043338;28;20048;-73
2022/10/19 00:49:35;;;;;;;24.38;9.30;;;;;;;15.75;100.00;100749.16;5007374;28;20033;-73
2022/10/19 00:52:02;;;;;;;16.73;9.65;;;;;;;15.76;100.00;100747.97;5016244;28;20096;-73
2022/10/19 00:54:27;;;;;;;16.83;9.48;;;;;;;15.74;100.00;100748.31;5007701;28;20032;-73
2022/10/19 00:56:53;;;;;;;11.95;9.05;;;;;;;15.73;100.00;100741.06;5042510;28;20029;-73
2022/10/19 00:59:20;;;;;;;17.67;9.60;;;;;;;15.73;100.00;100734.63;4991952;28;20025;-73
2022/10/19 01:01:45;;;;;;;17.52;9.30;;;;;;;15.71;100.00;100734.97;4990066;28;20048;-73
2022/10/19 01:04:11;;;;;;;16.00;8.80;;;;;;;15.70;100.00;100729.69;4998181;28;20018;-73
2022/10/19 01:06:37;;;;;;;17.25;9.57;;;;;;;15.67;100.00;100733.91;5026210;28;20050;-73
2022/10/19 01:09:02;;;;;;;13.50;8.50;;;;;;;15.64;100.00;100731.78;5031865;28;20171;-73
2022/10/19 01:11:43;;;;;;;18.02;9.43;;;;;;;15.67;100.00;100736.72;5034913;28;20026;-73
2022/10/19 01:14:27;;;;;;;15.68;8.23;;;;;;;15.66;100.00;100729.47;5023461;28;20041;-73
2022/10/19 01:16:58;;;;;;;13.57;8.85;;;;;;;15.64;100.00;100732.59;5016916;28;20042;-73
2022/10/19 01:19:24;;;;;;;19.38;9.15;;;;;;;15.64;100.00;100732.59;5008443;28;20108;-73
2022/10/19 01:21:59;;;;;;;15.80;8.80;;;;;;;15.63;100.00;100735.72;5017660;28;20058;-73
2022/10/19 01:24:50;;;;;;;16.23;8.48;;;;;;;15.62;100.00;100734.06;5012918;28;20036;-73
2022/10/19 01:27:32;;;;;;;13.07;9.32;;;;;;;15.60;100.00;100722.34;5031804;28;20030;-73
2022/10/19 01:30:25;;;;;;;15.35;8.63;;;;;;;15.59;100.00;100723.50;5015840;28;20025;-73
2022/10/19 01:32:54;;;;;;;15.10;8.57;;;;;;;15.57;100.00;100715.44;5048145;28;20083;-73
2022/10/19 01:35:24;;;;;;;18.58;9.25;;;;;;;15.58;100.00;100716.28;5041810;28;20087;-73
2022/10/19 01:37:59;;;;;;;13.90;8.48;;;;;;;15.57;100.00;100711.81;5021715;28;20033;-73
2022/10/19 01:40:53;;;;;;;14.50;8.35;;;;;;;15.57;100.00;100709.84;5043487;28;20043;-73
2022/10/19 01:43:47;;;;;;;23.20;9.05;;;;;;;15.57;100.00;100709.00;5034372;28;20037;-73
2022/10/19 01:46:17;;;;;;;14.95;9.52;;;;;;;15.57;100.00;100709.00;5017802;28;20069;-73
2022/10/19 01:48:52;;;;;;;14.13;9.15;;;;;;;15.54;100.00;100706.84;5045090;28;20036;-73
2022/10/19 01:51:29;;;;;;;15.85;8.77;;;;;;;15.50;100.00;100701.09;4992485;28;20055;-73
2022/10/19 01:53:57;;;;;;;15.43;8.77;;;;;;;15.52;100.00;100693.19;5004264;28;20064;-73
2022/10/19 01:56:24;;;;;;;15.60;9.48;;;;;;;15.52;100.00;100695.19;4998742;28;20038;-73
2022/10/19 01:58:49;;;;;;;17.92;9.55;;;;;;;15.51;100.00;100694.31;5013988;28;20029;-73
2022/10/19 02:01:15;;;;;;;16.70;9.13;;;;;;;15.51;100.00;100694.31;5010622;28;20026;-73
2022/10/19 02:03:41;;;;;;;11.18;7.85;;;;;;;15.52;100.00;100703.56;5015616;28;20100;-73
2022/10/19 02:06:07;;;;;;;11.90;9.05;;;;;;;15.52;100.00;100695.19;5004924;28;20037;-73
2022/10/19 02:08:42;;;;;;;14.23;8.73;;;;;;;15.49;100.00;100684.59;5031548;28;20552;-73
2022/10/19 02:11:08;;;;;;;14.75;8.68;;;;;;;15.48;100.00;100685.75;5021305;28;20115;-73
2022/10/19 02:13:33;;;;;;;22.90;9.35;;;;;;;15.50;100.00;100675.06;4985815;28;20026;-73
2022/10/19 02:16:00;;;;;;;11.90;8.50;;;;;;;15.50;100.00;100669.47;5022810;28;20029;-73
2022/10/19 02:18:29;;;;;;;13.40;8.15;;;;;;;15.50;100.00;100663.88;4999923;28;20033;-74
2022/10/19 02:20:55;;;;;;;13.55;8.10;;;;;;;15.48;100.00;100653.00;5018275;28;20037;-73
2022/10/19 02:23:21;;;;;;;14.80;8.40;;;;;;;15.50;100.00;100656.28;5014738;28;20029;-73
2022/10/19 02:25:46;;;;;;;14.95;7.75;;;;;;;15.49;100.00;100653.81;5005181;28;20048;-73
2022/10/19 02:28:12;;;;;;;15.40;8.32;;;;;;;15.49;100.00;100653.81;5012836;28;20026;-73
2022/10/19 02:30:37;;;;;;;10.50;7.63;;;;;;;15.47;100.00;100648.56;5024021;28;20073;-74
2022/10/19 02:33:03;;;;;;;11.07;7.80;;;;;;;15.46;100.00;100630.13;5015754;28;20026;-73
2022/10/19 02:35:28;;;;;;;14.57;7.80;;;;;;;15.47;100.00;100642.13;4997865;28;20029;-73
2022/10/19 02:37:56;;;;;;;12.57;8.13;;;;;;;15.46;100.00;100623.66;5007873;28;20022;-73
2022/10/19 02:40:22;;;;;;;13.48;8.20;;;;;;;15.45;100.00;100616.44;4991271;28;20022;-73
2022/10/19 02:42:51;;;;;;;16.33;8.38;;;;;;;15.44;100.00;100615.63;5000851;28;20037;-73
2022/10/19 02:45:26;;;;;;;14.57;9.10;;;;;;;15.42;100.00;100615.94;5008308;28;20029;-73
2022/10/19 02:47:53;;;;;;;19.00;9.00;;;;;;;15.41;100.00;100617.09;5023590;28;20037;-74
2022/10/19 02:50:19;;;;;;;13.43;9.27;;;;;;;15.41;100.00;100619.88;5005413;28;20034;-73
2022/10/19 02:52:44;;;;;;;17.92;9.32;;;;;;;15.41;100.00;100602.28;5023789;28;20044;-73
2022/10/19 02:55:10;;;;;;;16.10;8.57;;;;;;;15.39;100.00;100597.00;5010379;28;20360;-73
2022/10/19 02:57:35;;;;;;;11.27;8.25;;;;;;;15.38;100.00;100589.75;5030718;28;20092;-73
2022/10/19 03:00:02;;;;;;;13.50;8.20;;;;;;;15.39;100.00;100593.38;5032740;28;20032;-73
2022/10/19 03:02:28;;;;;;;19.92;8.70;;;;;;;15.37;100.00;100584.47;5004406;28;20509;-73
2022/10/19 03:04:53;;;;;;;15.27;9.10;;;;;;;15.35;100.00;100596.00;5010452;28;20055;-73
2022/10/19 03:07:20;;;;;;;12.43;8.77;;;;;;;15.34;100.00;100588.75;5000547;28;20052;-73
2022/10/19 03:09:46;;;;;;;15.75;9.07;;;;;;;15.34;100.00;100583.13;5014222;28;20020;-73
2022/10/19 03:12:11;;;;;;;12.45;8.00;;;;;;;15.34;100.00;100579.53;5018999;28;20489;-73
2022/10/19 03:14:37;;;;;;;15.27;8.93;;;;;;;15.35;100.00;100579.22;5010846;28;20101;-73
2022/10/19 03:17:02;;;;;;;16.38;8.85;;;;;;;15.33;100.00;100577.88;5036998;28;20038;-73
2022/10/19 03:19:28;;;;;;;13.65;8.70;;;;;;;15.30;100.00;100582.16;5003871;28;20028;-73
2022/10/19 03:21:53;;;;;;;13.98;9.45;;;;;;;15.32;100.00;100579.03;5004396;28;20025;-73
2022/10/19 03:24:19;;;;;;;14.18;8.27;;;;;;;15.30;100.00;100579.34;5000904;28;20033;-73
2022/10/19 03:26:44;;;;;;;16.02;7.97;;;;;;;15.27;100.00;100574.41;5006819;28;20037;-73
2022/10/19 03:29:10;;;;;;;15.18;8.63;;;;;;;15.28;100.00;100578.84;4987847;28;20081;-73
2022/10/19 03:31:35;;;;;;;15.35;7.97;;;;;;;15.27;100.00;100577.22;5003950;28;20042;-73
2022/10/19 03:34:01;;;;;;;15.93;7.75;;;;;;;15.29;100.00;100574.06;5036446;28;20482;-73
2022/10/19 03:36:30;;;;;;;13.68;8.02;;;;;;;15.26;100.00;100564.34;5019426;28;20030;-73
2022/10/19 03:38:57;;;;;;;11.10;8.88;;;;;;;15.27;100.00;100570.78;5014280;28;20036;-73
2022/10/19 03:41:24;;;;;;;18.30;8.27;;;;;;;15.27;100.00;100570.78;4999869;28;20026;-73
2022/10/19 03:43:49;;;;;;;12.88;8.95;;;;;;;15.27;100.00;100571.63;5000795;28;20084;-73
2022/10/19 03:46:15;;;;;;;15.23;8.40;;;;;;;15.26;100.00;100563.53;5020993;28;20029;-73
2022/10/19 03:48:40;;;;;;;15.00;8.30;;;;;;;15.25;100.00;100564.69;5016509;28;20049;-73
2022/10/19 03:51:08;;;;;;;14.20;9.13;;;;;;;15.24;100.00;100560.22;5005035;28;20481;-73
2022/10/19 03:53:33;;;;;;;15.95;9.07;;;;;;;15.24;100.00;100557.44;5012509;28;20041;-73
2022/10/19 03:56:06;;;;;;;17.40;9.13;;;;;;;15.23;100.00;100553.81;5037633;28;20033;-74
2022/10/19 03:58:32;;;;;;;;;;;;;;;15.21;100.00;100542.16;5044846;28;20124;-73
2022/10/19 04:00:58;;;;;;;12.75;8.45;;;;;;;15.22;100.00;100540.97;5038373;28;19915;-73
2022/10/19 04:03:23;;;;;;;20.13;9.27;;;;;;;15.19;100.00;100533.25;5016409;28;20022;-73
2022/10/19 04:05:50;;;;;;;21.05;9.65;;;;;;;15.19;100.00;100524.84;4988787;28;20036;-73
2022/10/19 04:08:15;;;;;;;16.83;9.25;;;;;;;15.17;100.00;100525.16;5008946;28;20036;-73
2022/10/19 04:10:40;;;;;;;14.25;8.90;;;;;;;15.18;100.00;100528.78;5004810;28;20029;-73
2022/10/19 04:13:06;;;;;;;10.93;8.23;;;;;;;15.17;100.00;100527.13;5003901;28;20037;-73
2022/10/19 04:15:31;;;;;;;17.00;9.50;;;;;;;15.16;100.00;100531.09;5012355;28;20034;-73
2022/10/19 04:17:57;;;;;;;16.98;9.23;;;;;;;15.15;100.00;100526.63;4996793;28;20477;-74
2022/10/19 04:20:22;;;;;;;14.43;8.48;;;;;;;15.14;100.00;100522.19;5022479;28;20088;-74
2022/10/19 04:22:48;;;;;;;16.63;9.32;;;;;;;15.14;100.00;100517.44;5046097;28;20033;-73
2022/10/19 04:25:13;;;;;;;15.65;8.90;;;;;;;15.13;100.00;100520.56;4991641;28;20028;-74
2022/10/19 04:27:39;;;;;;;16.88;9.30;;;;;;;15.15;100.00;100523.84;5022879;28;20037;-74
2022/10/19 04:30:05;;;;;;;13.88;8.55;;;;;;;15.14;100.00;100527.78;5020161;28;20033;-73
2022/10/19 04:32:30;;;;;;;18.63;8.90;;;;;;;15.14;100.00;100525.00;4992899;28;20037;-73
2022/10/19 04:34:56;;;;;;;15.52;8.48;;;;;;;15.13;100.00;100526.16;4999570;28;20050;-73
2022/10/19 04:37:21;;;;;;;13.57;8.60;;;;;;;15.12;100.00;100524.50;4999628;28;20064;-73
2022/10/19 04:39:47;;;;;;;15.48;8.45;;;;;;;15.13;100.00;100523.34;5006513;28;20036;-73
2022/10/19 04:42:12;;;;;;;13.85;8.73;;;;;;;15.13;100.00;100517.75;5024828;28;20417;-73
2022/10/19 04:44:38;;;;;;;16.77;8.40;;;;;;;15.14;100.00;100523.03;4987735;28;20025;-72
2022/10/19 04:47:03;;;;;;;13.45;8.60;;;;;;;15.15;100.00;100512.66;5044295;28;20409;-73
2022/10/19 04:49:29;;;;;;;16.77;8.57;;;;;;;15.15;100.00;100512.66;5014909;28;20029;-72
2022/10/19 04:51:54;;;;;;;14.98;9.18;;;;;;;15.14;100.00;100511.81;5013107;28;20477;-72
2022/10/19 04:54:20;;;;;;;17.65;9.45;;;;;;;15.14;100.00;100509.03;5009115;28;20033;-73
2022/10/19 04:56:45;;;;;;;12.30;8.32;;;;;;;15.15;100.00;100507.88;5028477;28;20067;-73
2022/10/19 04:59:11;;;;;;;14.80;8.32;;;;;;;15.16;100.00;100498.34;5029458;28;20057;-73
2022/10/19 05:01:37;;;;;;;15.00;8.43;;;;;;;15.15;100.00;100498.66;5026053;28;20033;-73
2022/10/19 05:04:02;;;;;;;16.70;8.93;;;;;;;15.15;100.00;100498.66;5006213;28;20033;-73
2022/10/19 05:06:29;;;;;;;17.65;8.98;;;;;;;15.14;100.00;100500.63;5015214;28;20061;-73
2022/10/19 05:08:54;;;;;;;16.08;9.05;;;;;;;15.14;100.00;100489.44;4998685;28;20031;-73
2022/10/19 05:11:20;;;;;;;16.00;9.18;;;;;;;15.13;100.00;100485.03;4987834;28;20084;-73
2022/10/19 05:13:45;;;;;;;13.77;8.32;;;;;;;15.14;100.00;100483.03;4998898;28;20039;-73
2022/10/19 05:16:13;;;;;;;14.70;9.30;;;;;;;15.13;100.00;100471.03;4998901;28;20037;-73
2022/10/19 05:18:38;;;;;;;15.63;8.98;;;;;;;15.14;100.00;100472.66;4998485;28;20045;-73
2022/10/19 05:21:07;;;;;;;17.38;9.20;;;;;;;15.12;100.00;100466.56;5012123;28;20034;-74
2022/10/19 05:23:33;;;;;;;14.57;8.90;;;;;;;15.13;100.00;100459.84;5022085;28;20036;-73
2022/10/19 05:26:03;;;;;;;14.88;8.45;;;;;;;15.13;100.00;100459.03;5027405;28;20045;-73
2022/10/19 05:28:28;;;;;;;20.65;8.85;;;;;;;15.11;100.00;100458.53;5036673;28;20083;-73
2022/10/19 05:30:54;;;;;;;14.98;8.55;;;;;;;15.12;100.00;100454.56;5007013;28;20034;-73
2022/10/19 05:33:19;;;;;;;17.33;9.30;;;;;;;15.12;100.00;100452.59;5022870;28;20036;-74
2022/10/19 05:35:45;;;;;;;12.85;8.63;;;;;;;15.14;100.00;100453.09;4994048;28;20029;-73
2022/10/19 05:38:10;;;;;;;12.27;8.15;;;;;;;15.14;100.00;100460.66;5027762;28;20037;-73
2022/10/19 05:40:36;;;;;;;15.05;8.70;;;;;;;15.14;100.00;100455.06;5029756;28;20028;-73
2022/10/19 05:43:01;;;;;;;16.73;8.30;;;;;;;15.11;100.00;100450.94;4984374;28;20474;-73
2022/10/19 05:45:27;;;;;;;19.17;9.18;;;;;;;15.13;100.00;100447.84;5015260;28;20037;-73
2022/10/19 05:47:52;;;;;;;16.70;8.98;;;;;;;15.13;100.00;100436.66;5022416;28;20028;-74
2022/10/19 05:50:18;;;;;;;15.90;9.07;;;;;;;15.14;100.00;100430.72;5010230;28;20037;-73
2022/10/19 05:52:43;;;;;;;12.85;8.43;;;;;;;15.13;100.00;100422.66;4998881;28;20026;-73
2022/10/19 05:55:09;;;;;;;15.68;8.02;;;;;;;15.13;100.00;100426.28;4998910;28;20501;-73
2022/10/19 05:57:34;;;;;;;15.57;8.55;;;;;;;15.11;100.00;100431.38;5011658;28;20116;-73
2022/10/19 06:00:00;;;;;;;13.27;8.75;;;;;;;15.10;100.00;100428.88;5023954;28;20079;-72
2022/10/19 06:02:25;;;;;;;13.85;8.18;;;;;;;15.12;100.00;100421.00;5004179;28;20079;-73
2022/10/19 06:04:51;;;;;;;18.80;8.75;;;;;;;15.13;100.00;100419.88;5011551;28;20037;-72
2022/10/19 06:07:16;;;;;;;15.15;8.65;;;;;;;15.11;100.00;100417.38;5021598;28;20057;-73
2022/10/19 06:09:42;;;;;;;14.60;8.30;;;;;;;15.12;100.00;100412.59;5048387;28;20032;-72
2022/10/19 06:12:07;;;;;;;15.15;8.85;;;;;;;15.12;100.00;100416.22;4984717;28;20045;-73
2022/10/19 06:14:32;;;;;;;14.85;9.00;;;;;;;15.12;100.00;100407.00;5001251;28;20030;-72
2022/10/19 06:16:58;;;;;;;17.73;9.27;;;;;;;15.11;100.00;100396.97;5022375;28;20029;-72
2022/10/19 06:19:23;;;;;;;15.15;8.75;;;;;;;15.11;100.00;100396.97;4994949;28;20469;-72
2022/10/19 06:21:49;;;;;;;19.50;8.80;;;;;;;15.09;100.00;100393.69;5004770;28;20026;-73
2022/10/19 06:24:14;;;;;;;18.25;8.70;;;;;;;15.09;100.00;100382.50;5031045;28;20055;-73
2022/10/19 06:26:40;;;;;;;15.93;9.15;;;;;;;15.09;100.00;100380.50;5020913;28;20033;-73
2022/10/19 06:29:05;;;;;;;17.65;9.10;;;;;;;15.07;100.00;100387.59;5011219;28;20080;-73
2022/10/19 06:31:32;;;;;;;16.67;8.85;;;;;;;15.07;100.00;100382.00;5004721;28;20505;-73
2022/10/19 06:33:58;;;;;;;17.20;9.15;;;;;;;15.07;100.00;100370.81;5021261;28;20064;-73
2022/10/19 06:36:25;;;;;;;12.75;8.98;;;;;;;15.05;100.00;100373.13;5015992;28;20026;-73
2022/10/19 06:38:52;;;;;;;18.35;9.23;;;;;;;15.04;100.00;100374.25;4992027;28;20033;-73
2022/10/19 06:41:17;;;;;;;14.63;9.00;;;;;;;15.04;100.00;100377.06;5001611;28;20030;-73
2022/10/19 06:43:43;;;;;;;16.55;9.55;;;;;;;15.05;100.00;100373.13;5001385;28;20086;-73
2022/10/19 06:46:19;;;;;;;17.83;9.27;;;;;;;15.04;100.00;100375.06;5004450;28;20037;-72
2022/10/19 06:49:04;;;;;;;12.15;8.15;;;;;;;15.03;100.00;100375.41;5013725;28;20104;-73
2022/10/19 06:51:32;;;;;;;16.98;8.70;;;;;;;15.00;100.00;100368.50;5025580;28;20128;-73
2022/10/19 06:53:57;;;;;;;14.52;8.77;;;;;;;15.00;100.00;100376.91;5019939;28;20037;-73
2022/10/19 06:56:24;;;;;;;16.17;8.88;;;;;;;15.01;100.00;100372.13;5012912;28;20157;-73
2022/10/19 06:58:49;;;;;;;14.05;8.73;;;;;;;14.97;100.00;100372.78;5034510;28;20030;-73
2022/10/19 07:01:15;;;;;;;15.15;7.57;;;;;;;14.98;100.00;100370.78;5012364;28;20038;-72
2022/10/19 07:03:42;;;;;;;14.73;8.85;;;;;;;15.00;100.00;100360.13;4984455;28;20034;-73
2022/10/19 07:06:08;;;;;;;15.35;9.15;;;;;;;15.00;100.00;100359.31;4989037;28;20100;-73
2022/10/19 07:08:34;;;;;;;15.30;8.68;;;;;;;15.01;100.00;100355.34;5037646;28;20029;-73
2022/10/19 07:11:02;;;;;;;13.52;8.63;;;;;;;15.02;100.00;100345.81;5002536;28;20045;-73
2022/10/19 07:13:27;;;;;;;14.30;9.02;;;;;;;15.02;100.00;100341.03;5021835;28;20040;-73
2022/10/19 07:15:57;;;;;;;14.30;8.15;;;;;;;15.03;100.00;100339.06;5001038;28;20033;-73
2022/10/19 07:18:23;;;;;;;19.98;8.98;;;;;;;15.05;100.00;100342.38;5002974;28;20393;-73
2022/10/19 07:20:58;;;;;;;16.25;8.77;;;;;;;15.04;100.00;100340.69;5042645;28;20033;-73
2022/10/19 07:23:24;;;;;;;14.30;8.60;;;;;;;15.06;100.00;100346.78;5009917;28;20548;-73
2022/10/19 07:25:52;;;;;;;18.65;9.60;;;;;;;15.05;100.00;100345.97;5023837;28;20033;-73
2022/10/19 07:28:18;;;;;;;14.88;8.43;;;;;;;15.07;100.00;100346.47;4996645;28;20068;-73
2022/10/19 07:30:43;;;;;;;14.57;8.57;;;;;;;15.09;100.00;100343.34;5004014;28;20044;-73
2022/10/19 07:33:09;;;;;;;16.88;9.02;;;;;;;15.10;100.00;100342.19;5014589;28;20029;-73
2022/10/19 07:35:35;;;;;;;16.20;8.43;;;;;;;15.09;100.00;100352.53;4987685;28;20028;-73
2022/10/19 07:38:01;;;;;;;20.05;8.55;;;;;;;15.11;100.00;100353.06;5030551;28;20034;-73
2022/10/19 07:40:27;;;;;;;16.88;8.70;;;;;;;15.12;100.00;100351.88;5013839;28;20032;-73
2022/10/19 07:42:52;;;;;;;13.57;8.27;;;;;;;15.14;100.00;100357.16;5038934;28;20036;-72
2022/10/19 07:45:18;;;;;;;14.48;7.90;;;;;;;15.13;100.00;100352.72;4995961;28;20026;-73
2022/10/19 07:47:43;;;;;;;14.68;7.97;;;;;;;15.13;100.00;100347.13;4999793;28;20483;-73
2022/10/19 07:50:09;;;;;;;15.18;8.48;;;;;;;15.14;100.00;100346.78;4993130;28;20022;-73
2022/10/19 07:52:34;;;;;;;14.70;7.60;;;;;;;15.16;100.00;100344.50;5024064;28;20029;-73
2022/10/19 07:55:00;;;;;;;21.23;8.23;;;;;;;15.17;100.00;100331.34;5045651;28;20030;-73
2022/10/19 07:57:26;;;;;;;15.85;8.00;;;;;;;15.17;100.00;100329.34;5004761;28;20036;-75
2022/10/19 07:59:51;;;;;;;16.98;7.65;;;;;;;15.18;100.00;100332.97;4992862;28;20026;-73
2022/10/19 08:02:18;;;;;;;16.55;7.43;;;;;;;15.21;100.00;100337.94;5033343;28;20040;-74
2022/10/19 08:04:44;;;;;;;13.52;7.60;;;;;;;15.21;100.00;100337.94;5003176;28;20108;-73
2022/10/19 08:07:10;;;;;;;13.15;7.68;;;;;;;15.22;100.00;100339.56;5002253;28;20045;-73
2022/10/19 08:09:35;;;;;;;11.27;7.35;;;;;;;15.24;100.00;100337.25;5027748;28;20034;-73
2022/10/19 08:12:01;;;;;;;13.55;7.50;;;;;;;15.25;100.00;100338.91;4985266;28;20030;-73
2022/10/19 08:14:27;;;;;;;16.90;8.02;;;;;;;15.28;100.00;100343.00;4977445;28;20040;-73
2022/10/19 08:16:52;;;;;;;13.02;7.05;;;;;;;15.27;100.00;100350.59;5016226;28;20025;-73
2022/10/19 08:19:18;;;;;;;13.75;7.63;;;;;;;15.29;100.00;100355.84;5036937;28;20048;-73
2022/10/19 08:21:44;;;;;;;13.13;7.22;;;;;;;15.30;100.00;100358.31;5001838;28;20033;-73
2022/10/19 08:24:10;;;;;;;12.20;7.10;;;;;;;15.31;100.00;100365.56;5012215;28;20546;-73
2022/10/19 08:26:39;;;;;;;12.27;6.35;;;;;;;15.32;100.00;100355.19;4995731;28;20026;-73
2022/10/19 08:29:09;;;;;;;16.70;7.60;;;;;;;15.35;100.00;100360.97;5009605;28;20601;-73
2022/10/19 08:31:34;;;;;;;10.30;7.03;;;;;;;15.39;100.00;100349.91;4996695;28;20022;-73
2022/10/19 08:34:00;;;;;;;15.30;8.45;;;;;;;15.41;100.00;100342.84;4999443;28;20470;-73
2022/10/19 08:36:26;;;;;;;16.73;9.05;;;;;;;15.44;100.00;100334.94;4999931;28;20594;-73
2022/10/19 08:38:51;;;;;;;13.38;8.55;;;;;;;15.46;100.00;100329.81;5001874;28;20041;-73
2022/10/19 08:41:36;;;;;;;17.05;8.45;;;;;;;15.52;100.00;100331.31;5015738;28;20524;-73
2022/10/19 08:44:29;;;;;;;12.95;8.00;;;;;;;15.57;100.00;100326.38;5028824;28;20474;-73
2022/10/19 08:47:15;;;;;;;19.23;7.95;;;;;;;15.67;100.00;100333.56;5015881;28;20022;-74
2022/10/19 08:49:41;;;;;;;13.18;8.25;;;;;;;15.78;100.00;100336.88;5041444;28;20085;-74
2022/10/19 08:52:12;;;;;;;17.48;8.15;;;;;;;15.87;100.00;100337.66;4989904;28;20121;-74
2022/10/19 08:54:54;;;;;;;15.93;7.28;;;;;;;15.97;100.00;100328.91;5003029;28;20467;-74
2022/10/19 08:57:58;;;;;;;11.70;7.20;;;;;;;16.08;100.00;100332.19;5037700;28;20044;-74
2022/10/19 09:00:49;;;;;;;13.15;6.35;;;;;;;16.23;100.00;100334.41;5035996;28;20143;-74
2022/10/19 09:03:44;;;;;;;13.90;6.40;;;;;;;16.37;100.00;100345.38;5001597;28;20025;-74
2022/10/19 09:06:25;;;;;;;10.85;5.97;;;;;;;16.60;100.00;100329.09;5005155;28;20049;-74
2022/10/19 09:08:51;;;;;;;13.48;5.88;;;;;;;16.69;100.00;100334.69;5030209;28;20038;-74
2022/10/19 09:11:22;;;;;;;11.90;6.25;;;;;;;16.83;100.00;100326.03;5020224;28;20031;-74
2022/10/19 09:13:49;;;;;;;11.85;5.68;;;;;;;16.96;100.00;100317.31;5005658;28;20029;-74
2022/10/19 09:16:16;;;;;;;14.18;5.28;;;;;;;17.12;100.00;100309.13;5005317;28;20092;-78
2022/10/19 09:18:41;;;;;;;13.57;5.18;;;;;;;17.27;100.00;100304.03;4989127;28;20040;-73
2022/10/19 09:21:10;;;;;;;11.70;5.68;;;;;;;17.36;100.00;100290.75;4995540;28;20053;-74
2022/10/19 09:23:42;;;;;;;10.85;5.80;;;;;;;17.50;100.00;100288.47;5033784;28;20037;-74
2022/10/19 09:26:14;;;;;;;9.67;4.60;;;;;;;17.68;100.00;100296.69;5021116;28;20246;-74
2022/10/19 09:28:55;;;;;;;12.57;5.22;;;;;;;17.80;100.00;100288.31;5031037;28;20041;-74
2022/10/19 09:31:25;;;;;;;10.02;5.07;;;;;;;17.92;100.00;100282.75;5020812;28;20382;-74
2022/10/19 09:33:54;;;;;;;12.07;4.60;;;;;;;18.07;100.00;100276.41;5045301;28;20060;-74
2022/10/19 09:36:20;;;;;;;12.30;5.15;;;;;;;18.18;100.00;100275.97;5001012;28;20748;-74
2022/10/19 09:38:46;;;;;;;13.32;5.10;;;;;;;18.36;100.00;100271.75;4984393;28;20033;-74
2022/10/19 09:41:21;;;;;;;16.00;4.97;;;;;;;18.46;100.00;100262.81;4990901;28;20041;-74
2022/10/19 09:43:52;;;;;;;11.60;4.60;;;;;;;18.55;100.00;100273.94;5011809;28;20038;-74
2022/10/19 09:46:35;;;;;;;7.63;4.30;;;;;;;18.72;100.00;100267.22;5001089;28;20049;-74
2022/10/19 09:49:02;;;;;;;14.18;4.93;;;;;;;18.81;100.00;100253.06;4986125;28;20025;-74
2022/10/19 09:51:38;;;;;;;10.13;4.72;;;;;;;18.90;100.00;100245.31;5011158;28;20521;-74
2022/10/19 09:54:03;;;;;;;8.77;5.20;;;;;;;18.94;100.00;100241.44;5016769;28;20037;-74
2022/10/19 09:56:29;;;;;;;12.57;4.78;;;;;;;19.12;100.00;100246.75;4987293;28;20034;-74
2022/10/19 09:58:58;;;;;;;12.38;4.45;;;;;;;19.20;100.00;100238.16;4995686;28;20025;-74
2022/10/19 10:01:31;;;;;;;11.80;4.60;;;;;;;19.28;100.00;100230.72;4995647;28;20033;-74
2022/10/19 10:04:13;;;;;;;11.23;4.93;;;;;;;19.36;100.00;100229.75;5031128;28;20514;-74
2022/10/19 10:06:39;;;;;;;8.88;4.32;;;;;;;19.39;100.00;100223.38;5018575;28;20125;-73
2022/10/19 10:09:04;;;;;;;10.85;5.15;;;;;;;19.50;100.00;100217.22;4981751;28;20058;-74
2022/10/19 10:11:32;;;;;;;11.25;5.07;;;;;;;19.58;100.00;100208.56;5004718;28;20030;-74
2022/10/19 10:13:59;;;;;;;10.77;4.50;;;;;;;19.68;100.00;100207.28;4999921;28;20038;-74
2022/10/19 10:16:29;;;;;;;12.88;4.60;;;;;;;19.69;100.00;100208.06;5014487;28;20117;-73
2022/10/19 10:18:54;;;;;;;12.43;4.55;;;;;;;19.84;100.00;100207.28;5014028;28;20036;-74
2022/10/19 10:21:24;;;;;;;13.45;4.65;;;;;;;19.92;100.00;100196.97;5020425;28;20037;-74
2022/10/19 10:24:16;;;;;;;13.23;4.15;;;;;;;20.05;100.00;100184.41;5024197;28;20040;-73
2022/10/19 10:26:43;;;;;;;15.05;4.20;;;;;;;20.13;100.00;100191.88;5008489;28;20453;-73
2022/10/19 10:29:23;;;;;;;13.13;4.05;;;;;;;20.17;100.00;100189.97;4988606;28;20553;-74
2022/10/19 10:31:51;;;;;;;16.23;4.20;;;;;;;20.26;100.00;100181.31;5027503;28;20030;-73
2022/10/19 10:34:30;;;;;;;17.25;4.05;;;;;;;20.36;100.00;100177.06;4997771;28;20116;-73
2022/10/19 10:36:55;;;;;;;10.50;3.78;;;;;;;20.38;100.00;100169.88;5002423;28;20049;-73
2022/10/19 10:39:20;;;;;;;12.55;4.10;;;;;;;20.42;100.00;100173.63;5023282;28;20048;-74
2022/10/19 10:41:49;;;;;;;11.75;3.92;;;;;;;20.56;100.00;100183.59;4993111;28;20094;-74
2022/10/19 10:44:22;;;;;;;10.93;4.43;;;;;;;20.65;100.00;100173.72;5004454;28;20098;-73
2022/10/19 10:46:54;;;;;;;11.60;3.50;;;;;;;20.66;100.00;100169.72;4999740;28;20117;-74
2022/10/19 10:49:23;;;;;;;12.07;3.83;;;;;;;20.74;100.00;100174.31;5039228;28;20036;-73
2022/10/19 10:51:51;;;;;;;12.85;3.90;;;;;;;20.82;100.00;100166.81;5010642;28;20522;-74
2022/10/19 10:54:22;;;;;;;10.27;3.92;;;;;;;20.85;100.00;100156.81;5014912;28;20132;-73
2022/10/19 10:56:56;;;;;;;12.02;3.83;;;;;;;20.90;100.00;100153.69;5001799;28;20034;-80
2022/10/19 10:59:25;;;;;;;15.18;4.15;;;;;;;20.95;100.00;100151.38;5001245;28;20033;-74
2022/10/19 11:02:10;;;;;;;11.00;4.05;;;;;;;21.03;100.00;100143.84;5037676;28;20022;-74
2022/10/19 11:04:38;;;;;;;11.85;3.90;;;;;;;21.09;100.00;100139.53;5008227;28;20106;-74
2022/10/19 11:07:17;;;;;;;9.73;3.78;;;;;;;21.08;100.00;100135.06;5000967;28;20467;-74
2022/10/19 11:09:51;;;;;;;12.65;3.70;;;;;;;21.10;100.00;100129.88;5007806;28;20057;-74
2022/10/19 11:12:18;;;;;;;14.65;3.83;;;;;;;21.15;100.00;100120.28;5010878;28;20026;-74
2022/10/19 11:15:02;;;;;;;9.18;3.78;;;;;;;21.19;100.00;100127.63;5012405;28;20057;-74